createdAt,value
2019-02-10T00:02:07.743Z,65.27
2019-02-10T00:04:38.451Z,65.80
2019-02-10T00:07:08.980Z,66.49
2019-02-10T00:09:39.640Z,65.64
2019-02-10T00:12:10.275Z,65.73
2019-02-10T00:14:40.997Z,65.46
2019-02-10T00:17:13.131Z,65.35
2019-02-10T00:19:43.830Z,66.46
2019-02-10T00:22:14.413Z,66.39
2019-02-10T00:24:45.168Z,66.17
2019-02-10T00:27:15.927Z,66.53
2019-02-10T00:29:56.166Z,66.97
2019-02-10T00:32:29.252Z,66.31
2019-02-10T00:34:59.860Z,66.81
2019-02-10T00:37:30.085Z,66.38
2019-02-10T00:40:00.767Z,66.29
2019-02-10T00:42:34.444Z,66.37
2019-02-10T00:45:07.976Z,67.00
2019-02-10T00:47:38.677Z,66.95
2019-02-10T00:50:09.237Z,66.90
2019-02-10T00:52:39.835Z,67.09
2019-02-10T00:55:10.458Z,67.66
2019-02-10T00:57:41.095Z,67.88
2019-02-10T01:00:11.367Z,67.32
2019-02-10T01:02:42.148Z,67.36
2019-02-10T01:05:15.340Z,68.45
2019-02-10T01:07:46.004Z,68.11
2019-02-10T01:10:17.258Z,67.65
2019-02-10T01:12:48.023Z,68.73
2019-02-10T01:15:18.713Z,68.03
2019-02-10T01:17:49.423Z,68.57
2019-02-10T01:20:20.040Z,68.31
2019-02-10T01:22:52.346Z,68.88
2019-02-10T01:25:23.148Z,69.37
2019-02-10T01:27:53.701Z,70.11
2019-02-10T01:30:23.996Z,70.51
2019-02-10T01:32:54.645Z,70.47
2019-02-10T01:35:26.866Z,70.65
2019-02-10T01:37:57.447Z,70.81
2019-02-10T01:40:27.967Z,70.92
2019-02-10T01:42:58.604Z,70.79
2019-02-10T01:45:29.253Z,71.47
2019-02-10T01:47:59.537Z,71.30
2019-02-10T01:50:30.089Z,71.49
2019-02-10T01:53:00.629Z,70.93
2019-02-10T01:55:32.926Z,71.51
2019-02-10T01:58:03.469Z,71.51
2019-02-10T02:00:34.053Z,71.84
2019-02-10T02:03:04.877Z,72.08
2019-02-10T02:05:35.419Z,72.23
2019-02-10T02:08:05.723Z,72.38
2019-02-10T02:10:36.751Z,72.29
2019-02-10T02:13:07.523Z,72.45
2019-02-10T02:15:39.774Z,72.49
2019-02-10T02:18:10.412Z,72.82
2019-02-10T02:20:42.582Z,72.61
2019-02-10T02:23:13.217Z,72.76
2019-02-10T02:25:43.932Z,72.44
2019-02-10T02:28:14.488Z,72.83
2019-02-10T02:30:45.120Z,72.90
2019-02-10T02:33:15.747Z,72.99
2019-02-10T02:35:46.390Z,72.29
2019-02-10T02:38:17.021Z,72.89
2019-02-10T02:40:47.632Z,73.34
2019-02-10T02:43:18.350Z,73.21
2019-02-10T02:45:48.550Z,73.51
2019-02-10T02:48:20.704Z,73.72
2019-02-10T02:50:52.832Z,73.45
2019-02-10T02:53:23.605Z,73.56
2019-02-10T02:55:54.209Z,73.04
2019-02-10T02:58:24.917Z,73.10
2019-02-10T03:00:55.541Z,73.51
2019-02-10T03:03:26.229Z,73.35
2019-02-10T03:05:56.965Z,73.28
2019-02-10T03:08:27.546Z,73.73
2019-02-10T03:10:58.180Z,73.76
2019-02-10T03:13:28.812Z,73.76
2019-02-10T03:15:59.430Z,73.49
2019-02-10T03:18:30.059Z,73.54
2019-02-10T03:21:00.696Z,73.76
2019-02-10T03:23:31.235Z,73.71
2019-02-10T03:26:01.865Z,73.71
2019-02-10T03:28:32.494Z,73.74
2019-02-10T03:31:03.013Z,73.61
2019-02-10T03:33:35.998Z,73.48
2019-02-10T03:36:06.291Z,73.44
2019-02-10T03:38:36.868Z,73.63
2019-02-10T03:41:07.358Z,74.02
2019-02-10T03:43:38.189Z,74.11
2019-02-10T03:46:08.800Z,74.10
2019-02-10T03:48:39.517Z,74.35
2019-02-10T03:51:13.031Z,73.91
2019-02-10T03:53:43.622Z,74.14
2019-02-10T03:56:14.151Z,74.05
2019-02-10T03:58:44.759Z,74.04
2019-02-10T04:01:15.316Z,74.23
2019-02-10T04:03:45.603Z,73.97
2019-02-10T04:06:16.063Z,73.85
2019-02-10T04:08:46.715Z,74.27
2019-02-10T04:11:17.228Z,74.40
2019-02-10T04:13:47.859Z,73.70
2019-02-10T04:16:18.130Z,74.16
2019-02-10T04:18:49.233Z,74.49
2019-02-10T04:21:19.792Z,74.44
2019-02-10T04:23:50.397Z,74.27
2019-02-10T04:26:22.252Z,74.14
2019-02-10T04:28:52.905Z,74.33
2019-02-10T04:31:23.514Z,74.33
2019-02-10T04:33:54.291Z,74.38
2019-02-10T04:36:24.892Z,74.26
2019-02-10T04:38:55.606Z,74.33
2019-02-10T04:41:28.986Z,74.47
2019-02-10T04:43:59.667Z,74.57
2019-02-10T04:46:30.195Z,74.59
2019-02-10T04:49:00.800Z,74.53
2019-02-10T04:51:31.328Z,74.93
2019-02-10T04:54:01.866Z,75.28
2019-02-10T04:56:32.513Z,74.77
2019-02-10T04:59:03.153Z,74.88
2019-02-10T05:01:35.497Z,74.71
2019-02-10T05:04:07.824Z,74.91
2019-02-10T05:06:38.503Z,75.10
2019-02-10T05:09:10.283Z,75.09
2019-02-10T05:11:40.893Z,75.28
2019-02-10T05:14:11.564Z,74.68
2019-02-10T05:16:42.206Z,74.47
2019-02-10T05:19:12.915Z,74.77
2019-02-10T05:21:43.554Z,74.48
2019-02-10T05:24:13.872Z,74.56
2019-02-10T05:26:44.064Z,74.23
2019-02-10T05:29:16.454Z,74.43
2019-02-10T05:31:46.702Z,74.11
2019-02-10T05:34:17.406Z,74.45
2019-02-10T05:36:48.054Z,74.34
2019-02-10T05:39:18.690Z,74.25
2019-02-10T05:41:49.316Z,74.64
2019-02-10T05:44:19.966Z,74.80
2019-02-10T05:46:50.232Z,75.44
2019-02-10T05:49:20.808Z,74.69
2019-02-10T05:51:51.436Z,74.42
2019-02-10T05:54:22.062Z,74.21
2019-02-10T05:56:52.606Z,74.43
2019-02-10T05:59:23.323Z,74.14
2019-02-10T06:02:03.077Z,74.26
2019-02-10T06:04:40.060Z,73.44
2019-02-10T06:07:13.804Z,74.00
2019-02-10T06:09:44.385Z,73.98
2019-02-10T06:12:14.672Z,74.13
2019-02-10T06:14:45.471Z,74.14
2019-02-10T06:17:16.085Z,74.06
2019-02-10T06:19:46.717Z,73.73
2019-02-10T06:22:17.235Z,73.36
2019-02-10T06:24:47.860Z,73.50
2019-02-10T06:27:18.486Z,74.03
2019-02-10T06:29:49.221Z,73.43
2019-02-10T06:32:19.853Z,73.95
2019-02-10T06:34:51.134Z,73.68
2019-02-10T06:37:21.850Z,73.69
2019-02-10T06:39:52.060Z,74.27
2019-02-10T06:42:22.596Z,74.18
2019-02-10T06:44:53.124Z,74.85
2019-02-10T06:47:23.743Z,74.26
2019-02-10T06:49:54.378Z,73.65
2019-02-10T06:52:27.045Z,74.13
2019-02-10T06:54:57.581Z,73.87
2019-02-10T06:57:28.128Z,73.64
2019-02-10T07:00:03.275Z,73.40
2019-02-10T07:02:38.513Z,73.68
2019-02-10T07:05:11.201Z,73.53
2019-02-10T07:07:41.716Z,73.29
2019-02-10T07:10:12.354Z,73.26
2019-02-10T07:12:47.183Z,74.04
2019-02-10T07:15:54.203Z,73.12
2019-02-10T07:19:01.364Z,73.58
2019-02-10T07:21:34.131Z,73.28
2019-02-10T07:24:24.623Z,73.21
2019-02-10T07:26:57.221Z,73.38
2019-02-10T07:29:36.769Z,73.21
2019-02-10T07:32:08.932Z,73.26
2019-02-10T07:34:48.026Z,73.04
2019-02-10T07:37:32.703Z,73.03
2019-02-10T07:40:33.455Z,73.12
2019-02-10T07:43:10.233Z,72.91
2019-02-10T07:45:50.077Z,73.06
2019-02-10T07:48:29.846Z,72.84
2019-02-10T07:51:20.980Z,72.92
2019-02-10T07:54:09.478Z,73.84
2019-02-10T07:56:58.131Z,73.41
2019-02-10T07:59:32.041Z,73.07
2019-02-10T08:02:08.416Z,73.62
2019-02-10T08:05:03.329Z,73.26
2019-02-10T08:07:39.993Z,76.39
2019-02-10T08:10:22.694Z,74.57
2019-02-10T08:12:56.501Z,72.46
2019-02-10T08:15:36.629Z,72.63
2019-02-10T08:18:20.957Z,72.33
2019-02-10T08:20:57.602Z,72.60
2019-02-10T08:23:36.809Z,73.79
2019-02-10T08:26:10.627Z,74.39
2019-02-10T08:29:02.638Z,74.75
2019-02-10T08:32:10.995Z,75.68
2019-02-10T08:35:01.265Z,76.23
2019-02-10T08:38:02.105Z,76.60
2019-02-10T08:40:53.320Z,76.75
2019-02-10T08:43:41.876Z,77.26
2019-02-10T08:46:21.051Z,77.77
2019-02-10T08:49:13.341Z,78.21
2019-02-10T08:51:55.883Z,78.59
2019-02-10T08:54:31.021Z,78.89
2019-02-10T08:57:01.525Z,79.26
2019-02-10T08:59:32.777Z,79.58
2019-02-10T09:02:02.983Z,80.45
2019-02-10T09:04:33.640Z,80.51
2019-02-10T09:07:04.371Z,80.61
2019-02-10T09:09:35.096Z,81.11
2019-02-10T09:12:05.938Z,81.73
2019-02-10T09:14:36.578Z,81.50
2019-02-10T09:17:07.188Z,82.09
2019-02-10T09:19:37.763Z,82.12
2019-02-10T09:22:08.414Z,82.26
2019-02-10T09:24:39.350Z,82.55
2019-02-10T09:27:09.833Z,82.61
2019-02-10T09:29:40.160Z,82.86
2019-02-10T09:32:13.278Z,82.99
2019-02-10T09:34:43.965Z,83.31
2019-02-10T09:37:14.232Z,83.23
2019-02-10T09:39:44.921Z,83.60
2019-02-10T09:42:15.444Z,83.61
2019-02-10T09:44:46.230Z,83.80
2019-02-10T09:47:17.483Z,83.53
2019-02-10T09:49:48.166Z,83.90
2019-02-10T09:52:18.686Z,83.51
2019-02-10T09:54:49.353Z,84.11
2019-02-10T09:57:19.890Z,83.92
2019-02-10T09:59:50.130Z,84.06
2019-02-10T10:02:20.805Z,84.34
2019-02-10T10:04:51.350Z,83.60
2019-02-10T10:07:21.881Z,84.29
2019-02-10T10:09:54.200Z,84.51
2019-02-10T10:12:24.942Z,84.27
2019-02-10T10:14:55.519Z,84.46
2019-02-10T10:17:28.311Z,84.12
2019-02-10T10:19:58.836Z,84.71
2019-02-10T10:22:33.643Z,85.00
2019-02-10T10:25:03.577Z,84.51
2019-02-10T10:27:34.645Z,84.54
2019-02-10T10:30:10.978Z,84.32
2019-02-10T10:32:41.230Z,84.63
2019-02-10T10:35:11.843Z,85.08
2019-02-10T10:37:42.678Z,85.06
2019-02-10T10:40:17.929Z,85.05
2019-02-10T10:42:50.961Z,85.81
2019-02-10T10:45:21.748Z,86.05
2019-02-10T10:47:52.360Z,84.88
2019-02-10T10:50:22.997Z,86.21
2019-02-10T10:52:53.620Z,85.26
2019-02-10T10:55:24.758Z,85.73
2019-02-10T10:57:55.318Z,86.18
2019-02-10T11:00:26.035Z,85.97
2019-02-10T11:02:57.477Z,85.51
2019-02-10T11:05:28.269Z,85.30
2019-02-10T11:08:00.587Z,85.88
2019-02-10T11:10:33.812Z,85.89
2019-02-10T11:13:04.070Z,86.17
2019-02-10T11:15:35.228Z,85.66
2019-02-10T11:18:07.416Z,85.32
2019-02-10T11:20:37.983Z,85.88
2019-02-10T11:23:10.798Z,85.69
2019-02-10T11:25:41.456Z,85.68
2019-02-10T11:28:12.244Z,85.65
2019-02-10T11:30:42.928Z,85.49
2019-02-10T11:33:13.525Z,85.62
2019-02-10T11:35:45.825Z,85.63
2019-02-10T11:38:16.086Z,86.04
2019-02-10T11:40:47.050Z,86.54
2019-02-10T11:43:17.656Z,85.90
2019-02-10T11:45:48.259Z,85.48
2019-02-10T11:48:18.776Z,85.98
2019-02-10T11:50:49.326Z,85.46
2019-02-10T11:53:19.971Z,85.58
2019-02-10T11:55:51.006Z,85.71
2019-02-10T11:58:21.665Z,85.64
2019-02-10T12:00:53.517Z,84.99
2019-02-10T12:03:24.217Z,85.00
2019-02-10T12:05:54.857Z,85.23
2019-02-10T12:08:34.994Z,85.02
2019-02-10T12:10:57.938Z,84.69
2019-02-10T12:13:30.427Z,85.03
2019-02-10T12:16:01.075Z,85.39
2019-02-10T12:18:31.811Z,84.93
2019-02-10T12:21:02.103Z,85.24
2019-02-10T12:23:32.822Z,85.15
2019-02-10T12:26:03.481Z,85.21
2019-02-10T12:28:35.850Z,84.83
2019-02-10T12:31:06.896Z,85.38
2019-02-10T12:33:37.087Z,85.38
2019-02-10T12:36:09.110Z,84.95
2019-02-10T12:38:40.452Z,85.54
2019-02-10T12:41:10.823Z,85.18
2019-02-10T12:43:41.513Z,85.16
2019-02-10T12:46:12.240Z,84.70
2019-02-10T12:48:46.165Z,85.05
2019-02-10T12:51:16.766Z,85.05
2019-02-10T12:53:47.319Z,85.33
2019-02-10T12:56:17.689Z,85.01
2019-02-10T12:58:51.152Z,85.42
2019-02-10T13:01:21.771Z,85.29
2019-02-10T13:03:52.067Z,85.53
2019-02-10T13:06:24.259Z,85.49
2019-02-10T13:08:54.905Z,85.34
2019-02-10T13:11:25.636Z,85.59
2019-02-10T13:13:56.396Z,85.46
2019-02-10T13:16:27.207Z,85.22
2019-02-10T13:19:04.788Z,85.66
2019-02-10T13:21:35.536Z,85.12
2019-02-10T13:24:06.683Z,85.71
2019-02-10T13:26:39.055Z,85.45
2019-02-10T13:29:12.785Z,85.27
2019-02-10T13:31:45.163Z,85.18
2019-02-10T13:34:17.387Z,84.77
2019-02-10T13:36:48.132Z,84.55
2019-02-10T13:39:18.406Z,84.66
2019-02-10T13:41:48.324Z,84.84
2019-02-10T13:44:22.092Z,84.62
2019-02-10T13:46:52.404Z,84.73
2019-02-10T13:49:23.035Z,85.03
2019-02-10T13:51:55.305Z,84.80
2019-02-10T13:54:25.902Z,84.61
2019-02-10T13:56:57.107Z,84.47
2019-02-10T13:59:27.819Z,85.17
2019-02-10T14:01:58.491Z,85.30
2019-02-10T14:04:30.827Z,85.08
2019-02-10T14:07:02.130Z,85.10
2019-02-10T14:09:32.816Z,85.49
2019-02-10T14:12:03.439Z,85.17
2019-02-10T14:14:34.047Z,85.81
2019-02-10T14:17:04.355Z,85.48
2019-02-10T14:19:34.903Z,86.08
2019-02-10T14:22:07.012Z,85.40
2019-02-10T14:24:37.693Z,85.65
2019-02-10T14:27:10.069Z,85.62
2019-02-10T14:29:40.700Z,85.49
2019-02-10T14:32:10.940Z,85.06
2019-02-10T14:34:43.131Z,85.01
2019-02-10T14:37:13.457Z,85.00
2019-02-10T14:39:44.047Z,85.08
2019-02-10T14:42:14.585Z,85.17
2019-02-10T14:44:45.318Z,85.36
2019-02-10T14:47:17.613Z,85.26
2019-02-10T14:49:48.356Z,85.54
2019-02-10T14:52:20.495Z,85.42
2019-02-10T14:54:56.993Z,85.38
2019-02-10T14:57:27.742Z,85.87
2019-02-10T14:59:59.582Z,85.68
2019-02-10T15:02:30.303Z,86.10
2019-02-10T15:05:02.195Z,85.84
2019-02-10T15:07:35.520Z,86.43
2019-02-10T15:10:08.500Z,86.03
2019-02-10T15:12:39.198Z,86.24
2019-02-10T15:15:11.278Z,85.98
2019-02-10T15:17:54.764Z,86.23
2019-02-10T15:20:15.431Z,85.83
2019-02-10T15:22:48.773Z,86.72
2019-02-10T15:25:19.524Z,86.15
2019-02-10T15:27:50.285Z,86.59
2019-02-10T15:30:20.965Z,86.80
2019-02-10T15:32:51.591Z,86.64
2019-02-10T15:35:22.715Z,86.52
2019-02-10T15:37:55.119Z,86.40
2019-02-10T15:40:27.595Z,86.23
2019-02-10T15:42:58.462Z,86.31
2019-02-10T15:45:30.839Z,86.52
2019-02-10T15:48:01.424Z,86.70
2019-02-10T15:50:33.683Z,86.69
2019-02-10T15:53:04.349Z,86.85
2019-02-10T15:55:34.629Z,86.66
2019-02-10T15:58:05.364Z,86.24
2019-02-10T16:00:36.199Z,86.56
2019-02-10T16:03:08.316Z,86.96
2019-02-10T16:05:39.332Z,86.61
2019-02-10T16:08:09.944Z,86.47
2019-02-10T16:10:41.144Z,86.36
2019-02-10T16:13:12.443Z,85.98
2019-02-10T16:15:44.349Z,86.29
2019-02-10T16:18:14.997Z,86.48
2019-02-10T16:20:47.229Z,86.33
2019-02-10T16:23:19.493Z,86.11
2019-02-10T16:25:50.128Z,85.93
2019-02-10T16:28:30.705Z,86.05
2019-02-10T16:31:01.477Z,86.32
2019-02-10T16:33:32.419Z,86.29
2019-02-10T16:36:05.651Z,86.17
2019-02-10T16:38:36.516Z,86.25
2019-02-10T16:41:08.303Z,86.57
2019-02-10T16:43:39.013Z,86.06
2019-02-10T16:46:12.095Z,86.37
2019-02-10T16:48:46.109Z,85.89
2019-02-10T16:51:16.398Z,86.34
2019-02-10T16:53:48.624Z,86.57
2019-02-10T16:56:20.873Z,84.98
2019-02-10T16:58:59.049Z,85.32
2019-02-10T17:01:31.741Z,85.33
2019-02-10T17:04:02.506Z,85.19
2019-02-10T17:06:34.723Z,85.09
2019-02-10T17:09:06.112Z,85.11
2019-02-10T17:11:36.861Z,84.96
2019-02-10T17:14:07.668Z,84.92
2019-02-10T17:16:40.041Z,85.20
2019-02-10T17:19:10.693Z,84.96
2019-02-10T17:21:41.399Z,85.17
2019-02-10T17:24:13.246Z,84.44
2019-02-10T17:26:45.236Z,84.16
2019-02-10T17:29:15.991Z,83.96
2019-02-10T17:31:47.846Z,84.00
2019-02-10T17:34:18.453Z,84.22
2019-02-10T17:36:49.003Z,84.13
2019-02-10T17:39:21.202Z,83.92
2019-02-10T17:41:52.507Z,83.53
2019-02-10T17:44:23.241Z,83.13
2019-02-10T17:46:53.897Z,83.37
2019-02-10T17:49:25.219Z,82.43
2019-02-10T17:51:56.272Z,82.76
2019-02-10T17:54:27.669Z,82.33
2019-02-10T17:56:58.639Z,82.86
2019-02-10T17:59:34.060Z,83.25
2019-02-10T18:02:04.752Z,81.42
2019-02-10T18:04:37.601Z,82.04
2019-02-10T18:07:07.583Z,82.23
2019-02-10T18:09:39.638Z,82.75
2019-02-10T18:12:13.747Z,82.73
2019-02-10T18:15:04.312Z,82.77
2019-02-10T18:17:57.276Z,82.72
2019-02-10T18:20:41.211Z,82.55
2019-02-10T18:23:29.952Z,82.32
2019-02-10T18:26:02.279Z,80.96
2019-02-10T18:28:46.552Z,80.13
2019-02-10T18:31:21.536Z,81.94
2019-02-10T18:33:55.099Z,81.58
2019-02-10T18:36:31.315Z,80.36
2019-02-10T18:39:09.286Z,81.08
2019-02-10T18:41:47.275Z,81.82
2019-02-10T18:44:19.555Z,81.61
2019-02-10T18:46:52.017Z,82.59
2019-02-10T18:49:40.607Z,82.37
2019-02-10T18:52:25.117Z,82.71
2019-02-10T18:55:00.247Z,83.08
2019-02-10T18:57:48.852Z,83.02
2019-02-10T19:00:37.955Z,82.87
2019-02-10T19:03:14.197Z,82.83
2019-02-10T19:05:46.436Z,83.75
2019-02-10T19:08:30.871Z,83.04
2019-02-10T19:11:03.186Z,83.24
2019-02-10T19:13:45.990Z,83.30
2019-02-10T19:16:18.358Z,83.05
2019-02-10T19:18:53.670Z,82.88
2019-02-10T19:21:27.094Z,83.09
2019-02-10T19:24:02.576Z,83.29
2019-02-10T19:26:37.897Z,83.06
2019-02-10T19:29:16.265Z,82.72
2019-02-10T19:32:07.041Z,83.05
2019-02-10T19:34:55.897Z,82.08
2019-02-10T19:37:32.128Z,82.92
2019-02-10T19:40:16.819Z,82.23
2019-02-10T19:43:05.764Z,82.37
2019-02-10T19:45:38.118Z,82.43
2019-02-10T19:48:13.222Z,82.58
2019-02-10T19:50:45.633Z,82.65
2019-02-10T19:53:20.544Z,84.41
2019-02-10T19:55:55.573Z,82.17
2019-02-10T19:58:30.545Z,80.81
2019-02-10T20:01:15.311Z,81.87
2019-02-10T20:04:05.506Z,82.21
2019-02-10T20:06:37.865Z,82.13
2019-02-10T20:09:09.828Z,81.61
2019-02-10T20:12:03.976Z,81.41
2019-02-10T20:14:32.829Z,81.58
2019-02-10T20:17:08.134Z,82.99
2019-02-10T20:19:42.167Z,82.23
2019-02-10T20:22:17.509Z,83.09
2019-02-10T20:24:52.226Z,83.46
2019-02-10T20:27:39.667Z,83.65
2019-02-10T20:30:30.378Z,83.35
2019-02-10T20:33:19.219Z,83.30
2019-02-10T20:36:06.695Z,83.45
2019-02-10T20:38:55.279Z,83.09
2019-02-10T20:41:36.453Z,83.20
2019-02-10T20:44:25.104Z,82.98
2019-02-10T20:46:59.698Z,81.72
2019-02-10T20:49:32.044Z,82.51
2019-02-10T20:52:20.834Z,81.96
2019-02-10T20:55:02.480Z,82.57
2019-02-10T20:57:52.656Z,82.15
2019-02-10T21:00:31.350Z,82.33
2019-02-10T21:03:20.012Z,83.26
2019-02-10T21:05:58.483Z,82.79
2019-02-10T21:08:30.712Z,82.55
2019-02-10T21:11:05.646Z,82.53
2019-02-10T21:13:40.899Z,81.97
2019-02-10T21:16:29.544Z,82.28
2019-02-10T21:19:04.459Z,80.94
2019-02-10T21:21:38.440Z,80.66
2019-02-10T21:24:10.760Z,81.17
2019-02-10T21:26:43.155Z,80.99
2019-02-10T21:29:18.359Z,81.15
2019-02-10T21:31:53.664Z,80.47
2019-02-10T21:34:26.824Z,80.52
2019-02-10T21:36:59.165Z,82.10
2019-02-10T21:39:46.438Z,81.15
2019-02-10T21:42:18.760Z,80.72
2019-02-10T21:44:51.712Z,80.78
2019-02-10T21:47:32.497Z,81.22
2019-02-10T21:50:04.420Z,81.98
2019-02-10T21:52:37.800Z,82.85
2019-02-10T21:55:09.709Z,82.14
2019-02-10T21:57:43.020Z,81.77
2019-02-10T22:00:14.508Z,81.99
2019-02-10T22:02:45.207Z,82.02
2019-02-10T22:05:15.852Z,81.72
2019-02-10T22:07:46.478Z,81.73
2019-02-10T22:10:17.090Z,82.45
2019-02-10T22:12:47.632Z,81.73
2019-02-10T22:15:18.250Z,81.96
2019-02-10T22:17:48.987Z,81.49
2019-02-10T22:20:19.521Z,81.12
2019-02-10T22:22:50.150Z,81.66
2019-02-10T22:25:20.417Z,81.33
2019-02-10T22:27:51.138Z,81.59
2019-02-10T22:30:21.754Z,81.31
2019-02-10T22:32:52.559Z,81.46
2019-02-10T22:35:23.206Z,81.02
2019-02-10T22:37:53.928Z,80.96
2019-02-10T22:40:24.454Z,80.53
2019-02-10T22:42:55.098Z,81.35
2019-02-10T22:45:25.739Z,80.40
2019-02-10T22:47:56.405Z,81.19
2019-02-10T22:50:26.709Z,81.10
2019-02-10T22:52:57.325Z,79.75
2019-02-10T22:55:27.999Z,79.53
2019-02-10T22:58:00.255Z,79.76
2019-02-10T23:00:49.661Z,79.16
2019-02-10T23:03:20.823Z,79.46
2019-02-10T23:05:51.049Z,79.03
2019-02-10T23:08:21.359Z,78.27
2019-02-10T23:10:52.082Z,78.41
2019-02-10T23:13:22.759Z,78.00
2019-02-10T23:15:53.293Z,78.02
2019-02-10T23:18:24.011Z,78.14
2019-02-10T23:20:54.539Z,77.95
2019-02-10T23:23:25.067Z,77.64
2019-02-10T23:25:55.606Z,77.97
2019-02-10T23:28:26.336Z,78.63
2019-02-10T23:30:58.371Z,79.35
2019-02-10T23:33:28.938Z,80.68
2019-02-10T23:35:59.458Z,81.36
2019-02-10T23:38:29.739Z,81.99
2019-02-10T23:41:00.313Z,82.55
2019-02-10T23:43:30.943Z,83.00
2019-02-10T23:46:01.177Z,83.64
2019-02-10T23:48:31.691Z,83.38
2019-02-10T23:51:01.891Z,82.93
2019-02-10T23:53:32.222Z,83.61
2019-02-10T23:56:02.860Z,84.26
2019-02-10T23:58:33.393Z,83.47
